Francisco, IN

2:38 PM CDT on September 17, 2014 (GMT -0500)
1 Block West of Oakland City University | Change Station
CLOSE
Current Station
Personal Weather Station
Location: Oakland City, IN
Elevation: 490 ft
Nearby Weather Stations

Elev 490 ft 38.34 °N, 87.35 °W | Updated 0 second ago

Overcast
Overcast
68.6 °F
Feels Like 68.6 °F
N
0.0
Wind Variable Wind from NNE
Gusts 6.0 mph

Today
High -- | Low -- °F
--% Chance of Precip.
Yesterday
High -- | Low -- °F
Precip. -- in
6:33 AM 6:54 PM
Waning Crescent, 33% visible
Pressure 30.01 in
Visibility 10.0 miles
Clouds Overcast 8500 ft
Dew Point 56 °F
Humidity 63%
Rainfall 0.00 in
Snow Depth Not available.
UV 2 out of 12
Pollen 6.20 out of 12
Ozone Good
PM2.5 Moderate
Flu Activity Not available.
METAR KEVV 171854Z 00000KT 10SM OVC085 21/10 A3002 RMK AO2 SLP163 T02060100

More Conditions Fewer Conditions

Pressure 30.01 in
Visibility 10.0 miles
Clouds Overcast 8500 ft
Dew Point 56 °F
Humidity 63%
Rainfall 0.00 in
Snow Depth Not available.
UV 2 out of 12
Pollen 6.20 out of 12
Ozone Good
PM2.5 Moderate
Flu Activity Not available.
METAR KEVV 171854Z 00000KT 10SM OVC085 21/10 A3002 RMK AO2 SLP163 T02060100

More Conditions Fewer Conditions

10-Day Weather Forecast

Almanac

Astronomy

Sep. 17, 2014 Rise Set
Actual Time 6:33 AM CDT 6:54 PM CDT
Civil Twilight 6:06 AM CDT 7:21 PM CDT
Nautical Twilight 5:35 AM CDT 7:52 PM CDT
Astronomical Twilight 5:03 AM CDT 8:23 PM CDT
Moon 12:36 AM CDT 3:00 PM CDT
Length of Visible Light 13h 14m
Length of Day
12h 21m
Tomorrow will be 2m 27s shorter.
Waning Crescent, 33% of the Moon is Illuminated
Today
Waning Crescent
Sep 24
New
Oct 1
First Quarter
Oct 8
Full
Oct 15
Last Quarter

Today's Extremes

State Highs State Lows

Community

WunderPhotos

Upload Photos

1,754,139 photos uploaded!

Nearby

Air Quality

  Air Quality AQ Index Pollutant
Yesterday Moderate
PM2.5
Yesterday Good
OZONE
Current Moderate
PM2.5
Current Good
OZONE
Wednesday Moderate
PM2.5
Wednesday Good
OZONE
Thursday Moderate
PM2.5
Thursday Good
OZONE

Snow Depth

Station Depth Elevation
No new snow has been reported.

Earthquake Activity

City Distance Mag. Time & Date
No recent earthquake activity has been reported nearby.
Minimum magnitude displayed is 2.5.

Coastal Water Temperatures

Place Temperature
No Stations Reporting

Nearby Weather Stations